Time;durP1;ratioP1;P1;durP2;ratioP2;P2;SDS_P1;SDS_P2;PMS_P1;PMS_P2;Temp;Humidity;BMP_temperature;BMP_pressure;BME280_temperature;BME280_humidity;BME280_pressure;Samples;Min_cycle;Max_cycle;Signal;HPM_P1;HPM_P2
2022/08/07 00:00:38;;;;;;;13.23;3.67;;;18.30;67.80;;;;;;4938019;28;20134;-53
2022/08/07 00:03:07;;;;;;;4.43;2.72;;;18.30;68.20;;;;;;4937582;29;20043;-55
2022/08/07 00:05:34;;;;;;;10.70;3.60;;;18.30;68.70;;;;;;4927968;29;20063;-53
2022/08/07 00:08:03;;;;;;;11.10;3.58;;;18.30;68.90;;;;;;4924477;29;20044;-51
2022/08/07 00:10:30;;;;;;;5.13;2.88;;;18.30;69.30;;;;;;4925963;29;20424;-54
2022/08/07 00:12:59;;;;;;;6.78;3.10;;;18.30;69.70;;;;;;4922047;29;20095;-53
2022/08/07 00:15:29;;;;;;;6.15;2.88;;;18.20;70.30;;;;;;4925898;29;20044;-55
2022/08/07 00:18:13;;;;;;;;;;;18.20;70.70;;;;;;4931006;29;20107;-56
2022/08/07 00:20:45;;;;;;;5.68;2.50;;;18.20;75.90;;;;;;4931853;29;20331;-55
2022/08/07 00:23:13;;;;;;;4.97;3.35;;;18.20;70.60;;;;;;4931564;29;20063;-54
2022/08/07 00:25:42;;;;;;;6.55;2.80;;;18.20;71.30;;;;;;4930231;29;20060;-54
2022/08/07 00:28:24;;;;;;;5.10;2.72;;;18.20;71.60;;;;;;4931263;29;20047;-54
2022/08/07 00:31:03;;;;;;;7.53;3.20;;;18.20;72.40;;;;;;4931519;29;20043;-50
2022/08/07 00:33:32;;;;;;;8.63;2.78;;;18.20;72.90;;;;;;4930669;29;20047;-53
2022/08/07 00:35:59;;;;;;;4.10;2.70;;;18.10;73.20;;;;;;4931127;29;20098;-52
2022/08/07 00:38:26;;;;;;;4.65;3.00;;;18.20;73.70;;;;;;4931229;29;20154;-55
2022/08/07 00:40:58;;;;;;;6.65;2.83;;;18.10;74.10;;;;;;4930886;29;20062;-51
2022/08/07 00:43:25;;;;;;;6.47;2.42;;;18.10;74.30;;;;;;4930711;29;20056;-55
2022/08/07 00:46:12;;;;;;;6.18;3.00;;;18.10;74.90;;;;;;4930979;28;20079;-55
2022/08/07 00:48:40;;;;;;;4.40;2.72;;;18.00;75.40;;;;;;4931209;29;20079;-55
2022/08/07 00:51:08;;;;;;;9.18;3.03;;;18.00;75.90;;;;;;4930810;29;20051;-54
2022/08/07 00:53:35;;;;;;;7.45;3.13;;;18.00;76.40;;;;;;4910773;29;20135;-52
2022/08/07 00:56:16;;;;;;;5.18;3.03;;;17.90;76.90;;;;;;4915657;29;20079;-55
2022/08/07 00:58:43;;;;;;;6.35;2.85;;;17.90;77.50;;;;;;4930985;29;20116;-55
2022/08/07 01:01:15;;;;;;;5.25;2.80;;;17.80;78.20;;;;;;4929405;29;20522;-55
2022/08/07 01:03:42;;;;;;;7.70;2.70;;;17.70;78.50;;;;;;4929489;29;20051;-55
2022/08/07 01:06:26;;;;;;;4.60;2.22;;;17.70;79.30;;;;;;4931000;29;20060;-58
2022/08/07 01:08:53;;;;;;;6.70;2.25;;;17.60;79.90;;;;;;4931211;29;20075;-55
2022/08/07 01:11:29;;;;;;;5.37;2.93;;;17.60;80.40;;;;;;4829298;28;10000956;-56
2022/08/07 01:14:17;;;;;;;4.75;2.42;;;17.60;81.40;;;;;;4928192;29;20258;-53
2022/08/07 01:16:54;;;;;;;10.05;2.53;;;17.60;81.10;;;;;;4929550;29;20085;-55
2022/08/07 01:19:21;;;;;;;4.57;2.10;;;17.50;81.40;;;;;;4929152;29;20051;-55
2022/08/07 01:21:50;;;;;;;4.40;2.72;;;17.50;81.90;;;;;;4911693;29;20173;-54
2022/08/07 01:24:19;;;;;;;6.72;2.78;;;17.50;82.20;;;;;;4925553;29;20507;-54
2022/08/07 01:26:48;;;;;;;5.00;2.45;;;17.50;82.00;;;;;;4913272;29;20495;-55
2022/08/07 01:29:19;;;;;;;6.13;2.20;;;17.50;82.30;;;;;;4932267;29;20127;-55
2022/08/07 01:31:48;;;;;;;27.83;5.95;;;17.50;82.50;;;;;;4924799;29;20055;-55
2022/08/07 01:34:16;;;;;;;5.45;2.80;;;17.40;83.20;;;;;;4921070;29;20526;-55
2022/08/07 01:36:48;;;;;;;5.22;2.47;;;17.30;83.30;;;;;;4939412;29;20085;-52
2022/08/07 01:39:27;;;;;;;3.25;2.38;;;17.30;83.70;;;;;;4940006;29;20055;-55
2022/08/07 01:42:12;;;;;;;2.80;2.35;;;17.30;85.00;;;;;;4950195;28;20036;-52
2022/08/07 01:45:43;;;;;;;8.43;2.47;;;17.30;84.10;;;;;;4955930;29;20059;-53
2022/08/07 01:48:45;;;;;;;;;;;17.20;89.60;;;;;;4930710;29;20070;-55
2022/08/07 01:51:20;;;;;;;6.18;2.72;;;17.20;90.30;;;;;;4941716;29;19922;-54
2022/08/07 01:54:08;;;;;;;2.80;2.25;;;17.20;86.70;;;;;;4935996;29;20430;-54
2022/08/07 01:57:05;;;;;;;6.68;2.47;;;17.10;83.80;;;;;;4931758;29;20440;-54
2022/08/07 01:59:51;;;;;;;2.92;2.22;;;17.10;87.80;;;;;;4932133;29;20097;-53
2022/08/07 02:02:27;;;;;;;6.25;2.85;;;17.10;87.20;;;;;;4914612;29;20048;-49
2022/08/07 02:05:18;;;;;;;3.13;1.88;;;17.00;86.10;;;;;;4946262;29;20050;-51
2022/08/07 02:12:17;;;;;;;6.50;2.22;;;16.90;90.60;;;;;;4958095;28;20039;-54
2022/08/07 02:14:58;;;;;;;6.57;2.38;;;16.90;90.10;;;;;;4933971;29;20103;-54
2022/08/07 02:17:26;;;;;;;7.32;3.35;;;16.80;86.10;;;;;;4945254;29;20047;-51
2022/08/07 02:20:01;;;;;;;6.07;1.92;;;16.70;86.60;;;;;;4945004;29;20127;-51
2022/08/07 02:22:56;;;;;;;3.83;2.45;;;16.70;86.60;;;;;;4946137;29;20056;-57
2022/08/07 02:25:23;;;;;;;4.43;2.33;;;16.70;90.70;;;;;;4943644;29;20069;-54
2022/08/07 02:28:44;;;;;;;12.05;4.13;;;16.60;87.10;;;;;;4945736;29;20403;-54
2022/08/07 02:31:25;;;;;;;3.15;2.10;;;16.60;87.00;;;;;;4928066;28;20147;-53
2022/08/07 02:34:52;;;;;;;5.22;2.45;;;16.50;87.50;;;;;;4933229;29;20043;-55
2022/08/07 02:37:50;;;;;;;4.10;2.50;;;16.40;91.50;;;;;;4931492;29;20148;-53
2022/08/07 02:40:25;;;;;;;5.63;2.85;;;16.40;88.10;;;;;;4933632;29;20138;-54
2022/08/07 02:43:00;;;;;;;6.43;2.40;;;16.50;88.70;;;;;;4933539;29;20051;-52
2022/08/07 02:45:33;;;;;;;3.97;1.97;;;16.50;88.20;;;;;;4919310;29;20048;-55
2022/08/07 02:48:30;;;;;;;4.40;2.42;;;16.50;88.40;;;;;;4935764;29;20058;-54
2022/08/07 02:51:09;;;;;;;5.03;2.33;;;16.40;90.80;;;;;;4934497;29;20212;-53
2022/08/07 02:53:55;;;;;;;3.70;2.03;;;16.30;91.20;;;;;;4933865;29;20052;-54
2022/08/07 02:56:22;;;;;;;5.30;2.10;;;16.30;89.40;;;;;;4915487;29;20108;-55
2022/08/07 02:58:53;;;;;;;2.92;2.00;;;16.30;89.80;;;;;;4920090;29;20054;-54
2022/08/07 03:05:50;;;;;;;4.18;2.03;;;16.30;92.50;;;;;;4961529;28;20099;-53
2022/08/07 03:08:42;;;;;;;2.92;2.03;;;16.20;92.80;;;;;;4939081;29;20051;-55
2022/08/07 03:11:09;;;;;;;7.38;2.55;;;16.10;90.60;;;;;;4953428;29;20039;-56
2022/08/07 03:14:35;;;;;;;2.40;1.73;;;16.10;90.60;;;;;;4948204;29;20107;-52
2022/08/07 03:21:32;;;;;;;7.07;2.30;;;15.80;93.40;;;;;;4934323;29;20051;-51
2022/08/07 03:24:02;;;;;;;8.70;2.60;;;15.80;91.10;;;;;;4905336;29;20044;-52
2022/08/07 03:26:50;;;;;;;4.90;2.38;;;15.70;91.40;;;;;;4913410;29;20066;-53
2022/08/07 03:29:27;;;;;;;5.55;2.42;;;15.70;91.70;;;;;;4900750;29;20084;-53
2022/08/07 03:31:54;;;;;;;4.15;2.65;;;15.70;92.00;;;;;;4898247;29;20112;-55
2022/08/07 03:34:22;;;;;;;8.75;3.42;;;15.70;92.00;;;;;;4897564;29;20052;-53
2022/08/07 03:36:53;;;;;;;3.75;2.20;;;15.60;92.20;;;;;;4898630;29;20048;-56
2022/08/07 03:39:50;;;;;;;5.55;2.58;;;15.60;92.30;;;;;;4903985;29;20076;-54
2022/08/07 03:43:00;;;;;;;3.40;2.28;;;15.60;94.80;;;;;;4913076;29;20044;-54
2022/08/07 03:49:48;;;;;;;3.42;2.22;;;15.40;94.60;;;;;;4928790;29;20229;-54
2022/08/07 03:52:38;;;;;;;4.18;2.17;;;15.40;94.50;;;;;;4928522;29;20043;-55
2022/08/07 03:55:06;;;;;;;3.28;2.13;;;15.50;93.30;;;;;;4925990;29;20040;-55
2022/08/07 03:57:34;;;;;;;8.57;2.33;;;15.40;92.50;;;;;;4921662;29;20624;-55
2022/08/07 04:00:21;;;;;;;5.35;1.98;;;15.40;92.50;;;;;;4914312;29;20431;-55
2022/08/07 04:02:57;;;;;;;4.78;2.17;;;15.40;92.60;;;;;;4912144;29;20208;-56
2022/08/07 04:05:24;;;;;;;10.02;2.20;;;15.30;92.80;;;;;;4911367;29;20051;-54
2022/08/07 04:08:05;;;;;;;7.13;2.42;;;15.30;92.80;;;;;;4912400;29;20111;-55
2022/08/07 04:10:32;;;;;;;5.00;2.63;;;15.30;92.80;;;;;;4914361;29;20127;-56
2022/08/07 04:13:06;;;;;;;7.75;2.33;;;15.30;93.00;;;;;;4913573;29;20052;-53
2022/08/07 04:15:40;;;;;;;4.82;2.17;;;15.20;93.10;;;;;;4912233;29;20075;-55
2022/08/07 04:18:11;;;;;;;5.07;2.30;;;15.20;93.10;;;;;;4912776;29;20044;-55
2022/08/07 04:20:57;;;;;;;3.60;2.00;;;15.10;93.40;;;;;;4904854;29;20044;-54
2022/08/07 04:23:25;;;;;;;3.63;2.20;;;15.10;93.30;;;;;;4912290;29;20048;-54
2022/08/07 04:26:11;;;;;;;3.60;2.13;;;15.10;93.40;;;;;;4911888;29;20063;-54
2022/08/07 04:28:42;;;;;;;5.65;2.33;;;15.10;93.40;;;;;;4911224;29;20157;-54
2022/08/07 04:31:10;;;;;;;5.93;2.00;;;15.00;93.50;;;;;;4912791;29;20052;-54
2022/08/07 04:33:46;;;;;;;9.45;2.47;;;15.00;93.70;;;;;;4897034;29;20437;-53
2022/08/07 04:36:20;;;;;;;8.07;2.50;;;15.00;93.90;;;;;;4912465;29;20048;-52
2022/08/07 04:38:51;;;;;;;5.45;2.35;;;15.00;94.10;;;;;;4912080;29;20464;-54
2022/08/07 04:41:18;;;;;;;4.97;2.75;;;14.90;94.30;;;;;;4912173;29;20091;-52
2022/08/07 04:43:45;;;;;;;6.70;2.72;;;14.90;94.40;;;;;;4934606;29;20039;-53
2022/08/07 04:46:42;;;;;;;7.53;2.40;;;15.00;94.50;;;;;;4947215;29;20362;-56
2022/08/07 04:49:41;;;;;;;6.78;2.28;;;14.90;95.40;;;;;;4947051;29;20048;-52
2022/08/07 04:52:44;;;;;;;7.22;2.38;;;14.90;95.40;;;;;;4932577;29;20051;-52
2022/08/07 04:55:59;;;;;;;4.88;2.55;;;14.90;96.80;;;;;;4931704;29;20051;-55
2022/08/07 04:58:54;;;;;;;8.50;2.42;;;14.90;95.80;;;;;;4947705;29;20047;-50
2022/08/07 05:01:45;;;;;;;5.20;2.65;;;14.90;95.30;;;;;;4938079;29;20518;-54
2022/08/07 05:04:20;;;;;;;5.32;2.25;;;14.90;94.90;;;;;;4931768;29;20111;-55
2022/08/07 05:07:08;;;;;;;4.57;2.25;;;14.80;95.10;;;;;;4936970;29;20103;-53
2022/08/07 05:10:09;;;;;;;6.47;2.50;;;14.80;96.70;;;;;;4917194;29;20054;-55
2022/08/07 05:12:40;;;;;;;4.35;2.65;;;14.70;97.10;;;;;;4921766;29;20128;-54
2022/08/07 05:15:26;;;;;;;7.85;2.92;;;14.80;95.60;;;;;;4930056;29;20050;-54
2022/08/07 05:18:02;;;;;;;4.85;2.67;;;14.80;95.80;;;;;;4930426;29;20043;-51
2022/08/07 05:20:49;;;;;;;4.75;2.20;;;14.80;95.80;;;;;;4916113;29;20044;-54
2022/08/07 05:23:20;;;;;;;6.43;2.27;;;14.80;97.00;;;;;;4930319;29;20059;-52
2022/08/07 05:25:56;;;;;;;5.55;2.25;;;14.80;95.70;;;;;;4911081;29;20047;-50
2022/08/07 05:28:43;;;;;;;6.05;3.25;;;14.80;95.60;;;;;;4951465;29;20054;-53
2022/08/07 05:31:18;;;;;;;4.47;2.15;;;14.80;95.70;;;;;;4945625;29;20078;-56
2022/08/07 05:33:46;;;;;;;10.50;2.72;;;14.80;95.90;;;;;;4945335;29;20071;-51
2022/08/07 05:36:31;;;;;;;4.97;2.08;;;14.80;95.90;;;;;;4919522;29;20537;-54
2022/08/07 05:39:01;;;;;;;6.03;2.72;;;14.80;95.80;;;;;;4930570;29;20052;-54
2022/08/07 05:41:48;;;;;;;11.13;2.40;;;14.90;95.90;;;;;;4930343;29;20055;-55
2022/08/07 05:44:33;;;;;;;3.13;1.88;;;15.00;95.80;;;;;;4932534;29;20056;-55
2022/08/07 05:46:59;;;;;;;7.80;2.15;;;15.10;95.70;;;;;;4929160;29;20075;-56
2022/08/07 05:49:26;;;;;;;3.75;2.10;;;15.10;95.50;;;;;;4913865;29;20048;-54
2022/08/07 05:52:07;;;;;;;4.70;1.92;;;15.10;95.60;;;;;;4928901;29;20492;-53
2022/08/07 05:54:37;;;;;;;4.15;2.13;;;15.20;95.60;;;;;;4930221;29;20090;-54
2022/08/07 05:57:19;;;;;;;7.45;2.20;;;15.30;95.60;;;;;;4929181;29;20083;-52
2022/08/07 05:59:46;;;;;;;5.70;2.25;;;15.30;95.50;;;;;;4929057;29;20066;-54
2022/08/07 06:02:25;;;;;;;3.58;2.08;;;15.40;95.50;;;;;;4914648;29;20055;-55
2022/08/07 06:04:57;;;;;;;4.90;1.83;;;15.40;95.50;;;;;;4930227;29;20055;-55
2022/08/07 06:07:24;;;;;;;3.65;2.45;;;15.40;95.40;;;;;;4912601;29;20286;-53
2022/08/07 06:10:11;;;;;;;6.38;3.00;;;15.50;95.30;;;;;;4916322;29;20062;-54
2022/08/07 06:12:41;;;;;;;4.55;2.53;;;15.50;95.30;;;;;;4931337;29;20055;-55
2022/08/07 06:15:08;;;;;;;4.78;2.50;;;15.60;95.30;;;;;;4933115;29;20103;-55
2022/08/07 06:17:42;;;;;;;10.10;2.38;;;15.70;95.20;;;;;;4947531;29;20090;-56
2022/08/07 06:20:22;;;;;;;5.45;2.45;;;15.70;95.10;;;;;;4952378;29;20075;-53
2022/08/07 06:22:58;;;;;;;4.20;2.25;;;15.80;95.00;;;;;;4596216;29;10001437;-58
2022/08/07 06:25:45;;;;;;;3.97;1.92;;;16.00;94.80;;;;;;4929631;29;20171;-54
2022/08/07 06:28:22;;;;;;;7.18;2.47;;;15.90;94.60;;;;;;4931243;29;20063;-56
2022/08/07 06:30:54;;;;;;;6.68;2.47;;;16.00;94.60;;;;;;4931707;29;20055;-54
2022/08/07 06:33:20;;;;;;;5.80;2.97;;;16.10;94.60;;;;;;4933591;29;20649;-56
2022/08/07 06:35:48;;;;;;;5.85;1.85;;;16.10;94.40;;;;;;4916605;29;20055;-55
2022/08/07 06:38:35;;;;;;;6.50;2.63;;;16.20;94.30;;;;;;4939638;29;20044;-54
2022/08/07 06:41:05;;;;;;;6.45;2.67;;;16.30;94.20;;;;;;4938252;29;20063;-55
2022/08/07 06:43:35;;;;;;;5.97;2.45;;;16.40;94.10;;;;;;4938117;29;20056;-54
2022/08/07 06:46:06;;;;;;;4.90;2.25;;;16.50;93.90;;;;;;4935790;29;20051;-55
2022/08/07 06:48:38;;;;;;;8.80;4.13;;;16.60;93.70;;;;;;4933767;29;20048;-55
2022/08/07 06:51:13;;;;;;;8.40;2.30;;;16.60;93.60;;;;;;4938138;29;20503;-53
2022/08/07 06:53:41;;;;;;;7.72;2.97;;;16.70;93.60;;;;;;4923535;29;20059;-53
2022/08/07 06:56:42;;;;;;;8.75;2.55;;;16.80;93.30;;;;;;4939106;29;20055;-55
2022/08/07 06:59:20;;;;;;;6.82;2.80;;;16.90;93.10;;;;;;4938986;29;20039;-53
2022/08/07 07:02:17;;;;;;;9.15;3.65;;;17.00;93.00;;;;;;4937070;29;20048;-55
2022/08/07 07:05:04;;;;;;;5.70;3.22;;;17.00;92.90;;;;;;4920350;29;20091;-55
2022/08/07 07:07:31;;;;;;;6.80;3.25;;;17.00;92.90;;;;;;4933479;29;20471;-54
2022/08/07 07:10:26;;;;;;;12.45;2.75;;;17.10;92.90;;;;;;4934409;29;20132;-54
2022/08/07 07:13:03;;;;;;;5.22;3.20;;;17.30;92.80;;;;;;4935584;29;20119;-49
2022/08/07 07:15:32;;;;;;;5.55;2.88;;;17.30;92.30;;;;;;4930370;29;20604;-53
2022/08/07 07:18:07;;;;;;;8.73;3.40;;;17.40;92.20;;;;;;4917272;29;20054;-55
2022/08/07 07:20:40;;;;;;;8.95;3.80;;;17.40;92.10;;;;;;4943222;29;20044;-58
2022/08/07 07:23:07;;;;;;;8.07;4.00;;;17.50;92.00;;;;;;4928072;29;20083;-53
2022/08/07 07:25:56;;;;;;;7.72;4.05;;;17.60;91.50;;;;;;4934476;29;20118;-53
2022/08/07 07:29:12;;;;;;;7.93;4.75;;;17.70;91.00;;;;;;4961125;29;20040;-56
2022/08/07 07:31:59;;;;;;;8.75;4.00;;;17.70;91.10;;;;;;4942524;29;20067;-54
2022/08/07 07:34:35;;;;;;;9.82;3.97;;;17.80;90.60;;;;;;4949074;29;20132;-53
2022/08/07 07:37:05;;;;;;;9.07;4.13;;;17.90;90.70;;;;;;4944515;29;20040;-52
2022/08/07 07:39:54;;;;;;;9.82;4.28;;;18.00;90.40;;;;;;4929516;29;20050;-55
2022/08/07 07:42:22;;;;;;;11.30;3.92;;;18.10;90.40;;;;;;4934392;29;20060;-55
2022/08/07 07:45:00;;;;;;;8.35;3.25;;;18.20;90.00;;;;;;4940654;29;20131;-55
2022/08/07 07:48:06;;;;;;;7.50;4.03;;;18.30;88.80;;;;;;4953897;29;20079;-53
2022/08/07 07:52:03;;;;;;;5.90;3.33;;;18.30;88.60;;;;;;4951579;29;20042;-54
2022/08/07 07:55:14;;;;;;;5.70;2.00;;;18.40;86.00;;;;;;4933220;29;20160;-53
2022/08/07 07:57:40;;;;;;;4.15;2.22;;;18.50;84.20;;;;;;4912011;29;20629;-54
2022/08/07 08:00:19;;;;;;;7.88;3.67;;;18.50;84.00;;;;;;4913546;29;20135;-53
2022/08/07 08:03:03;;;;;;;8.35;3.85;;;18.50;85.40;;;;;;4928628;29;20166;-53
2022/08/07 08:05:38;;;;;;;8.88;3.92;;;18.60;85.90;;;;;;4913464;29;20127;-52
2022/08/07 08:08:22;;;;;;;6.25;3.55;;;18.70;86.00;;;;;;4914862;29;20051;-52
2022/08/07 08:11:02;;;;;;;7.03;4.22;;;18.80;86.40;;;;;;4928564;29;20111;-51
2022/08/07 08:13:29;;;;;;;11.32;4.57;;;18.80;86.70;;;;;;4927136;29;20049;-54
2022/08/07 08:16:08;;;;;;;7.53;4.15;;;18.90;86.40;;;;;;4928073;29;20418;-54
2022/08/07 08:18:38;;;;;;;7.78;4.68;;;19.00;86.60;;;;;;4927427;29;20055;-54
2022/08/07 08:27:03;;;;;;;7.75;3.78;;;19.00;86.80;;;;;;4927643;29;20081;-52
2022/08/07 08:27:13;;;;;;;7.97;4.05;;;19.10;86.40;;;;;;4916738;29;20206;-50
2022/08/07 08:29:51;;;;;;;12.05;4.70;;;19.30;86.20;;;;;;4918496;29;20131;-50
2022/08/07 08:32:25;;;;;;;8.50;3.75;;;19.40;85.50;;;;;;4933927;28;20575;-53
2022/08/07 08:35:05;;;;;;;12.13;5.13;;;19.40;85.10;;;;;;4934257;28;20139;-54
2022/08/07 08:37:34;;;;;;;6.82;4.60;;;19.50;84.70;;;;;;4928811;29;20051;-55
2022/08/07 08:40:33;;;;;;;9.57;4.40;;;19.50;85.00;;;;;;4927875;29;20304;-53
2022/08/07 08:43:16;;;;;;;7.38;4.40;;;19.60;84.70;;;;;;4912515;29;20710;-52
2022/08/07 08:45:52;;;;;;;15.68;6.25;;;19.70;85.00;;;;;;4921273;29;20500;-57
2022/08/07 08:48:49;;;;;;;13.85;5.20;;;19.80;84.00;;;;;;4936335;28;20079;-55
2022/08/07 08:51:27;;;;;;;9.07;4.32;;;19.90;83.20;;;;;;4927162;28;20055;-55
2022/08/07 08:54:37;;;;;;;8.05;5.38;;;19.90;82.20;;;;;;4937868;29;20052;-53
2022/08/07 08:57:20;;;;;;;7.65;4.63;;;20.00;82.10;;;;;;4921463;29;20044;-54
2022/08/07 08:59:55;;;;;;;9.80;4.38;;;20.00;81.80;;;;;;4940926;29;20040;-53
2022/08/07 09:02:37;;;;;;;12.40;4.60;;;20.10;81.20;;;;;;4924094;28;20090;-56
2022/08/07 09:05:24;;;;;;;7.78;4.63;;;20.30;81.10;;;;;;4924812;29;20138;-55
2022/08/07 09:08:26;;;;;;;8.10;4.22;;;20.40;79.90;;;;;;4922789;28;20052;-54
2022/08/07 09:11:03;;;;;;;11.27;5.32;;;20.30;78.30;;;;;;4931193;29;20075;-52
2022/08/07 09:13:42;;;;;;;10.85;4.97;;;20.30;79.50;;;;;;4930656;29;20484;-53
2022/08/07 09:16:42;;;;;;;6.53;4.03;;;20.50;77.60;;;;;;4929554;29;20051;-55
2022/08/07 09:19:22;;;;;;;8.75;4.40;;;20.60;75.50;;;;;;4929000;29;20046;-54
2022/08/07 09:22:28;;;;;;;7.35;4.10;;;20.60;75.30;;;;;;4925099;29;20055;-52
2022/08/07 09:25:28;;;;;;;7.90;4.78;;;20.60;74.70;;;;;;4928563;29;20051;-55
2022/08/07 09:28:02;;;;;;;12.75;5.63;;;20.60;75.00;;;;;;4912189;29;20562;-55
2022/08/07 09:30:32;;;;;;;;;;;20.70;75.30;;;;;;4926183;29;20055;-52
2022/08/07 09:33:19;;;;;;;12.30;5.18;;;20.80;74.10;;;;;;4928336;29;19994;-54
2022/08/07 09:36:21;;;;;;;7.78;4.68;;;20.90;73.80;;;;;;4918249;29;20115;-55
2022/08/07 09:39:04;;;;;;;9.27;4.05;;;21.00;74.60;;;;;;4927585;29;20062;-54
2022/08/07 09:42:08;;;;;;;11.88;5.30;;;21.20;73.90;;;;;;4928916;29;20099;-53
2022/08/07 09:45:05;;;;;;;8.50;3.92;;;21.20;72.20;;;;;;4934122;29;20048;-54
2022/08/07 09:48:11;;;;;;;9.98;3.95;;;21.30;72.30;;;;;;4911847;29;20148;-52
2022/08/07 09:51:35;;;;;;;12.40;4.20;;;21.40;72.10;;;;;;4927474;29;20566;-56
2022/08/07 09:54:34;;;;;;;8.65;4.05;;;21.70;69.60;;;;;;4964008;28;20617;-55
2022/08/07 09:57:20;;;;;;;11.63;3.75;;;21.90;68.80;;;;;;4929544;29;20052;-54
2022/08/07 10:00:06;;;;;;;8.15;4.50;;;22.20;70.20;;;;;;4930223;29;20130;-53
2022/08/07 10:03:07;;;;;;;11.00;4.38;;;22.60;65.60;;;;;;4914888;29;20087;-56
2022/08/07 10:06:03;;;;;;;8.50;3.55;;;22.90;64.90;;;;;;4930419;29;20050;-54
2022/08/07 10:09:11;;;;;;;7.70;4.00;;;23.40;64.70;;;;;;4911983;29;20117;-54
2022/08/07 10:12:14;;;;;;;12.18;4.60;;;23.90;62.50;;;;;;4941344;28;20051;-54
2022/08/07 10:15:12;;;;;;;8.82;3.78;;;24.40;59.70;;;;;;4924918;29;20499;-58
2022/08/07 10:18:21;;;;;;;9.57;3.38;;;24.50;57.30;;;;;;4936324;29;20063;-56
2022/08/07 10:21:14;;;;;;;8.18;3.10;;;24.40;55.30;;;;;;4930779;29;20106;-55
2022/08/07 10:24:12;;;;;;;7.07;3.67;;;24.60;57.70;;;;;;4911893;29;20056;-54
2022/08/07 10:27:07;;;;;;;7.28;3.58;;;24.70;56.00;;;;;;4929283;29;20062;-54
2022/08/07 10:30:02;;;;;;;8.63;2.67;;;24.30;54.40;;;;;;4930598;29;20055;-53
2022/08/07 10:33:15;;;;;;;5.70;3.05;;;24.10;54.70;;;;;;4929357;29;20044;-56
2022/08/07 10:35:57;;;;;;;9.38;3.28;;;24.10;55.10;;;;;;4934587;29;20583;-55
2022/08/07 10:38:49;;;;;;;4.95;2.80;;;24.10;54.90;;;;;;4923453;29;20130;-55
2022/08/07 10:41:47;;;;;;;6.90;4.13;;;24.50;54.70;;;;;;4913351;29;20056;-56
2022/08/07 10:44:46;;;;;;;7.28;3.40;;;24.60;54.50;;;;;;4917103;29;20134;-57
2022/08/07 10:47:21;;;;;;;6.97;3.30;;;25.00;54.20;;;;;;4928591;29;20051;-57
2022/08/07 10:50:13;;;;;;;6.23;3.37;;;25.20;55.10;;;;;;4911686;29;20056;-55
2022/08/07 10:52:50;;;;;;;12.25;3.80;;;25.00;55.10;;;;;;4941829;29;20052;-51
2022/08/07 10:55:45;;;;;;;4.65;3.42;;;24.70;54.20;;;;;;4928877;29;20056;-55
2022/08/07 10:58:38;;;;;;;10.48;3.20;;;24.40;54.80;;;;;;4930337;29;20079;-55
2022/08/07 11:01:15;;;;;;;8.52;2.97;;;24.40;56.00;;;;;;4949402;28;20111;-53
2022/08/07 11:03:47;;;;;;;8.70;3.63;;;24.60;55.00;;;;;;4931109;29;20051;-51
2022/08/07 11:06:25;;;;;;;9.20;3.63;;;24.50;55.20;;;;;;4558254;28;10001464;-51
2022/08/07 11:09:13;;;;;;;5.88;2.55;;;24.30;55.10;;;;;;4917472;29;20054;-55
2022/08/07 11:12:16;;;;;;;7.80;3.05;;;24.20;54.20;;;;;;4933325;29;20044;-57
2022/08/07 11:15:01;;;;;;;8.68;2.83;;;24.00;54.10;;;;;;4932326;29;20052;-53
2022/08/07 11:18:14;;;;;;;7.93;2.90;;;24.00;55.30;;;;;;4932934;29;20169;-50
2022/08/07 11:21:05;;;;;;;6.55;3.00;;;23.80;54.20;;;;;;4954323;28;20560;-52
2022/08/07 11:23:46;;;;;;;6.10;3.22;;;23.70;53.50;;;;;;4932107;29;20064;-53
2022/08/07 11:26:32;;;;;;;12.30;5.13;;;23.70;54.10;;;;;;4928343;29;20048;-54
2022/08/07 11:29:10;;;;;;;7.30;3.03;;;23.60;54.10;;;;;;4930072;29;20818;-55
2022/08/07 11:32:00;;;;;;;10.45;3.53;;;23.40;55.00;;;;;;4918931;29;20063;-56
2022/08/07 11:34:35;;;;;;;5.90;2.85;;;23.50;54.90;;;;;;4929979;29;20051;-57
2022/08/07 11:37:29;;;;;;;8.43;3.33;;;23.50;55.40;;;;;;4932730;29;20127;-56
2022/08/07 11:40:25;;;;;;;5.57;2.78;;;23.50;54.50;;;;;;4922703;29;20050;-55
2022/08/07 11:42:58;;;;;;;9.23;3.20;;;23.60;54.90;;;;;;4930833;29;20082;-54
2022/08/07 11:45:37;;;;;;;6.35;2.35;;;23.70;54.70;;;;;;4922182;29;20056;-55
2022/08/07 11:48:43;;;;;;;9.32;2.70;;;23.70;54.60;;;;;;4930598;29;20071;-56
2022/08/07 11:52:02;;;;;;;7.35;2.83;;;24.00;55.20;;;;;;4932058;29;20048;-55
2022/08/07 11:54:58;;;;;;;7.20;3.22;;;24.30;54.00;;;;;;4932165;29;20110;-56
2022/08/07 11:57:37;;;;;;;8.98;3.58;;;24.40;53.00;;;;;;4912217;29;20059;-56
2022/08/07 12:00:39;;;;;;;6.35;3.28;;;24.30;53.60;;;;;;4944182;29;20050;-55
2022/08/07 12:03:46;;;;;;;4.60;2.65;;;24.30;53.70;;;;;;4931554;29;20056;-55
2022/08/07 12:06:37;;;;;;;10.95;2.75;;;24.30;52.70;;;;;;4923130;29;20052;-55
2022/08/07 12:09:36;;;;;;;;;;;24.30;53.20;;;;;;4932105;29;20048;-56
2022/08/07 12:12:12;;;;;;;6.20;2.47;;;24.40;52.70;;;;;;4932793;29;19922;-55
2022/08/07 12:14:58;;;;;;;5.60;2.58;;;24.60;52.60;;;;;;4930936;29;20212;-55
2022/08/07 12:17:38;;;;;;;6.40;3.13;;;24.80;51.30;;;;;;4916503;29;20133;-53
2022/08/07 12:20:30;;;;;;;8.70;3.10;;;24.70;51.10;;;;;;4931723;29;20513;-55
2022/08/07 12:23:28;;;;;;;5.15;2.88;;;24.70;52.30;;;;;;4931092;29;20119;-53
2022/08/07 12:26:36;;;;;;;4.47;2.47;;;24.70;51.50;;;;;;4930979;29;20046;-55
2022/08/07 12:29:31;;;;;;;9.23;3.15;;;24.90;52.00;;;;;;4930432;29;20138;-55
2022/08/07 12:32:20;;;;;;;8.23;2.43;;;25.00;52.40;;;;;;4922683;29;20052;-54
2022/08/07 12:34:48;;;;;;;5.00;2.47;;;25.10;50.50;;;;;;4931597;29;20056;-54
2022/08/07 12:37:22;;;;;;;6.45;2.50;;;25.10;52.00;;;;;;4931659;29;20075;-55
2022/08/07 12:40:09;;;;;;;8.07;2.53;;;25.30;52.20;;;;;;4930062;29;20559;-53
2022/08/07 12:42:58;;;;;;;3.83;2.42;;;25.50;51.80;;;;;;4930698;29;20051;-57
2022/08/07 12:45:29;;;;;;;6.15;2.97;;;25.50;50.60;;;;;;4914874;29;20063;-56
2022/08/07 12:48:00;;;;;;;8.27;2.30;;;25.20;51.20;;;;;;4930337;29;20139;-56
2022/08/07 12:50:49;;;;;;;6.10;2.47;;;25.10;50.60;;;;;;4931285;29;20111;-55
2022/08/07 12:53:18;;;;;;;5.65;2.92;;;25.10;51.00;;;;;;4931961;29;20047;-52
2022/08/07 12:56:01;;;;;;;6.32;2.95;;;25.00;51.30;;;;;;4930341;29;20083;-54
2022/08/07 12:58:39;;;;;;;5.90;2.15;;;25.00;50.70;;;;;;4930123;29;20052;-55
2022/08/07 13:01:28;;;;;;;3.28;2.33;;;25.30;51.60;;;;;;4915265;29;20048;-54
2022/08/07 13:04:10;;;;;;;8.15;2.92;;;25.60;50.70;;;;;;4915241;29;20047;-55
2022/08/07 13:06:51;;;;;;;4.38;2.42;;;25.70;50.70;;;;;;4930925;29;20516;-53
2022/08/07 13:10:05;;;;;;;6.20;2.50;;;25.70;50.20;;;;;;4944505;29;20047;-55
2022/08/07 13:13:29;;;;;;;9.25;2.75;;;25.60;50.10;;;;;;4927349;29;20138;-55
2022/08/07 13:16:19;;;;;;;4.97;2.67;;;25.50;50.20;;;;;;4930896;29;20059;-55
2022/08/07 13:19:09;;;;;;;3.75;2.40;;;25.50;50.90;;;;;;4929709;29;20472;-54
2022/08/07 13:22:31;;;;;;;5.22;2.53;;;25.60;50.50;;;;;;4930540;29;20047;-56
2022/08/07 13:25:16;;;;;;;4.10;2.28;;;25.70;49.70;;;;;;4933603;29;20056;-57
2022/08/07 13:28:01;;;;;;;4.55;1.80;;;25.50;50.60;;;;;;4929340;29;20083;-56
2022/08/07 13:30:43;;;;;;;8.00;2.45;;;25.60;50.90;;;;;;4916209;29;20063;-56
2022/08/07 13:33:41;;;;;;;4.18;2.17;;;25.80;50.80;;;;;;4929485;29;20147;-55
2022/08/07 13:36:38;;;;;;;10.75;2.17;;;26.10;49.50;;;;;;4929931;29;20058;-56
2022/08/07 13:39:25;;;;;;;7.20;3.05;;;26.30;50.40;;;;;;4931041;29;20135;-56
2022/08/07 13:42:13;;;;;;;5.95;2.58;;;26.50;49.80;;;;;;4930171;29;20338;-56
2022/08/07 13:44:47;;;;;;;3.85;1.65;;;26.60;49.80;;;;;;4929694;29;20059;-54
2022/08/07 13:47:37;;;;;;;4.03;2.20;;;26.60;50.20;;;;;;4929626;29;20131;-56
2022/08/07 13:50:24;;;;;;;2.00;1.63;;;26.70;49.90;;;;;;4930698;29;20510;-52
2022/08/07 13:53:09;;;;;;;5.25;2.30;;;26.80;49.70;;;;;;4929376;29;20035;-53
2022/08/07 13:55:40;;;;;;;6.32;2.00;;;26.40;49.70;;;;;;4929766;29;20107;-56
2022/08/07 14:01:11;;;;;;;4.07;2.22;;;26.20;49.60;;;;;;4929766;29;20126;-56
2022/08/07 14:03:40;;;;;;;4.13;1.63;;;26.40;49.40;;;;;;4929447;29;20714;-55
2022/08/07 14:06:31;;;;;;;5.95;2.00;;;26.50;49.50;;;;;;4930800;28;20641;-55
2022/08/07 14:08:58;;;;;;;4.10;1.70;;;26.80;49.60;;;;;;4929278;29;20090;-56
2022/08/07 14:11:30;;;;;;;6.70;2.83;;;27.20;49.60;;;;;;4929437;29;20047;-56
2022/08/07 14:14:17;;;;;;;3.95;1.83;;;27.60;49.20;;;;;;4910444;29;20052;-56
2022/08/07 14:16:46;;;;;;;4.90;2.08;;;27.80;48.70;;;;;;4914231;29;20385;-56
2022/08/07 14:19:18;;;;;;;4.63;1.98;;;28.00;48.70;;;;;;4914204;29;20128;-57
2022/08/07 14:22:05;;;;;;;5.30;1.80;;;28.30;47.10;;;;;;4910761;29;20140;-58
2022/08/07 14:24:56;;;;;;;6.88;2.22;;;28.90;48.60;;;;;;4929189;29;20048;-57
2022/08/07 14:27:34;;;;;;;4.65;2.35;;;29.30;47.90;;;;;;4913718;29;20091;-55
2022/08/07 14:30:21;;;;;;;3.65;1.80;;;30.00;45.60;;;;;;4929170;29;20047;-55